sensor_id;sensor_type;location;lat;lon;timestamp;temperature;humidity
13998;DHT22;7074;51.508;7.018;2023-02-26T00:01:36;3.70;99.90
13998;DHT22;7074;51.508;7.018;2023-02-26T00:04:05;3.40;99.90
13998;DHT22;7074;51.508;7.018;2023-02-26T00:06:35;3.30;99.90
13998;DHT22;7074;51.508;7.018;2023-02-26T00:09:03;3.50;99.90
13998;DHT22;7074;51.508;7.018;2023-02-26T00:11:31;3.40;99.90
13998;DHT22;7074;51.508;7.018;2023-02-26T00:13:59;3.30;99.90
13998;DHT22;7074;51.508;7.018;2023-02-26T00:16:29;3.40;99.90
13998;DHT22;7074;51.508;7.018;2023-02-26T00:18:58;3.20;99.90
13998;DHT22;7074;51.508;7.018;2023-02-26T00:21:27;3.20;99.90
13998;DHT22;7074;51.508;7.018;2023-02-26T00:23:55;3.10;99.90
13998;DHT22;7074;51.508;7.018;2023-02-26T00:26:25;3.10;99.90
13998;DHT22;7074;51.508;7.018;2023-02-26T00:28:53;3.00;99.90
13998;DHT22;7074;51.508;7.018;2023-02-26T00:31:21;2.90;99.90
13998;DHT22;7074;51.508;7.018;2023-02-26T00:33:52;3.00;99.90
13998;DHT22;7074;51.508;7.018;2023-02-26T00:36:22;3.00;99.90
13998;DHT22;7074;51.508;7.018;2023-02-26T00:39:01;3.10;99.90
13998;DHT22;7074;51.508;7.018;2023-02-26T00:41:32;3.20;99.90
13998;DHT22;7074;51.508;7.018;2023-02-26T00:44:01;3.30;99.90
13998;DHT22;7074;51.508;7.018;2023-02-26T00:46:37;3.20;99.90
13998;DHT22;7074;51.508;7.018;2023-02-26T00:49:15;3.20;99.90
13998;DHT22;7074;51.508;7.018;2023-02-26T00:51:48;3.20;99.90
13998;DHT22;7074;51.508;7.018;2023-02-26T00:54:18;3.20;99.90
13998;DHT22;7074;51.508;7.018;2023-02-26T00:56:47;3.10;99.90
13998;DHT22;7074;51.508;7.018;2023-02-26T00:59:15;3.20;99.90
13998;DHT22;7074;51.508;7.018;2023-02-26T01:01:43;3.20;99.90
13998;DHT22;7074;51.508;7.018;2023-02-26T01:04:14;3.20;99.90
13998;DHT22;7074;51.508;7.018;2023-02-26T01:06:45;3.20;99.90
13998;DHT22;7074;51.508;7.018;2023-02-26T01:09:19;3.30;99.90
13998;DHT22;7074;51.508;7.018;2023-02-26T01:11:49;3.20;99.90
13998;DHT22;7074;51.508;7.018;2023-02-26T01:14:17;3.20;99.90
13998;DHT22;7074;51.508;7.018;2023-02-26T01:16:50;3.20;99.90
13998;DHT22;7074;51.508;7.018;2023-02-26T01:19:26;3.30;99.90
13998;DHT22;7074;51.508;7.018;2023-02-26T01:22:03;3.30;99.90
13998;DHT22;7074;51.508;7.018;2023-02-26T01:24:34;3.30;99.90
13998;DHT22;7074;51.508;7.018;2023-02-26T01:27:02;3.40;99.90
13998;DHT22;7074;51.508;7.018;2023-02-26T01:29:31;3.30;99.90
13998;DHT22;7074;51.508;7.018;2023-02-26T01:32:02;3.30;99.90
13998;DHT22;7074;51.508;7.018;2023-02-26T01:34:35;3.20;99.90
13998;DHT22;7074;51.508;7.018;2023-02-26T01:37:11;3.20;99.90
13998;DHT22;7074;51.508;7.018;2023-02-26T01:39:42;3.30;99.90
13998;DHT22;7074;51.508;7.018;2023-02-26T01:42:16;3.20;99.90
13998;DHT22;7074;51.508;7.018;2023-02-26T01:44:53;3.20;99.90
13998;DHT22;7074;51.508;7.018;2023-02-26T01:47:28;3.00;99.90
13998;DHT22;7074;51.508;7.018;2023-02-26T01:50:00;3.00;99.90
13998;DHT22;7074;51.508;7.018;2023-02-26T01:55:42;2.90;99.90
13998;DHT22;7074;51.508;7.018;2023-02-26T01:58:10;3.00;99.90
13998;DHT22;7074;51.508;7.018;2023-02-26T02:00:38;3.10;99.90
13998;DHT22;7074;51.508;7.018;2023-02-26T02:03:06;3.00;99.90
13998;DHT22;7074;51.508;7.018;2023-02-26T02:05:40;3.00;99.90
13998;DHT22;7074;51.508;7.018;2023-02-26T02:08:14;3.10;99.90
13998;DHT22;7074;51.508;7.018;2023-02-26T02:10:44;3.10;99.90
13998;DHT22;7074;51.508;7.018;2023-02-26T02:13:19;3.00;99.90
13998;DHT22;7074;51.508;7.018;2023-02-26T02:15:54;2.90;99.90
13998;DHT22;7074;51.508;7.018;2023-02-26T02:18:36;3.00;99.90
13998;DHT22;7074;51.508;7.018;2023-02-26T02:21:27;3.10;99.90
13998;DHT22;7074;51.508;7.018;2023-02-26T02:23:59;3.20;99.90
13998;DHT22;7074;51.508;7.018;2023-02-26T02:26:52;3.20;99.90
13998;DHT22;7074;51.508;7.018;2023-02-26T02:32:42;3.10;99.90
13998;DHT22;7074;51.508;7.018;2023-02-26T02:35:14;3.00;99.90
13998;DHT22;7074;51.508;7.018;2023-02-26T02:37:46;3.00;99.90
13998;DHT22;7074;51.508;7.018;2023-02-26T02:40:17;3.10;99.90
13998;DHT22;7074;51.508;7.018;2023-02-26T02:42:49;3.10;99.90
13998;DHT22;7074;51.508;7.018;2023-02-26T02:45:19;3.10;99.90
13998;DHT22;7074;51.508;7.018;2023-02-26T02:47:54;3.10;99.90
13998;DHT22;7074;51.508;7.018;2023-02-26T02:50:26;3.10;99.90
13998;DHT22;7074;51.508;7.018;2023-02-26T02:52:57;2.80;99.90
13998;DHT22;7074;51.508;7.018;2023-02-26T02:55:30;2.90;99.90
13998;DHT22;7074;51.508;7.018;2023-02-26T02:58:01;2.90;99.90
13998;DHT22;7074;51.508;7.018;2023-02-26T03:00:33;3.00;99.90
13998;DHT22;7074;51.508;7.018;2023-02-26T03:03:08;3.00;99.90
13998;DHT22;7074;51.508;7.018;2023-02-26T03:05:37;2.90;99.90
13998;DHT22;7074;51.508;7.018;2023-02-26T03:08:07;2.80;99.90
13998;DHT22;7074;51.508;7.018;2023-02-26T03:10:36;2.70;99.90
13998;DHT22;7074;51.508;7.018;2023-02-26T03:13:04;2.70;99.90
13998;DHT22;7074;51.508;7.018;2023-02-26T03:15:36;2.70;99.90
13998;DHT22;7074;51.508;7.018;2023-02-26T03:18:15;2.70;99.90
13998;DHT22;7074;51.508;7.018;2023-02-26T03:20:52;2.60;99.90
13998;DHT22;7074;51.508;7.018;2023-02-26T03:23:27;2.40;99.90
13998;DHT22;7074;51.508;7.018;2023-02-26T03:26:07;2.30;99.90
13998;DHT22;7074;51.508;7.018;2023-02-26T03:28:42;2.20;99.90
13998;DHT22;7074;51.508;7.018;2023-02-26T03:31:15;2.30;99.90
13998;DHT22;7074;51.508;7.018;2023-02-26T03:33:50;2.20;99.90
13998;DHT22;7074;51.508;7.018;2023-02-26T03:36:22;2.10;99.90
13998;DHT22;7074;51.508;7.018;2023-02-26T03:39:08;2.00;99.90
13998;DHT22;7074;51.508;7.018;2023-02-26T03:41:41;2.10;99.90
13998;DHT22;7074;51.508;7.018;2023-02-26T03:44:15;2.10;99.90
13998;DHT22;7074;51.508;7.018;2023-02-26T03:46:47;2.00;99.90
13998;DHT22;7074;51.508;7.018;2023-02-26T03:49:23;2.00;99.90
13998;DHT22;7074;51.508;7.018;2023-02-26T03:51:52;2.00;99.90
13998;DHT22;7074;51.508;7.018;2023-02-26T03:54:44;2.10;99.90
13998;DHT22;7074;51.508;7.018;2023-02-26T03:57:38;2.00;99.90
13998;DHT22;7074;51.508;7.018;2023-02-26T04:00:18;1.90;99.90
13998;DHT22;7074;51.508;7.018;2023-02-26T04:02:50;1.80;99.90
13998;DHT22;7074;51.508;7.018;2023-02-26T04:05:23;1.90;99.90
13998;DHT22;7074;51.508;7.018;2023-02-26T04:07:52;2.00;99.90
13998;DHT22;7074;51.508;7.018;2023-02-26T04:10:21;1.90;99.90
13998;DHT22;7074;51.508;7.018;2023-02-26T04:12:51;1.90;99.90
13998;DHT22;7074;51.508;7.018;2023-02-26T04:15:18;1.90;99.90
13998;DHT22;7074;51.508;7.018;2023-02-26T04:17:45;2.00;99.90
13998;DHT22;7074;51.508;7.018;2023-02-26T04:20:13;2.00;99.90
13998;DHT22;7074;51.508;7.018;2023-02-26T04:22:42;1.90;99.90
13998;DHT22;7074;51.508;7.018;2023-02-26T04:25:09;1.90;99.90
13998;DHT22;7074;51.508;7.018;2023-02-26T04:27:37;2.00;99.90
13998;DHT22;7074;51.508;7.018;2023-02-26T04:30:06;1.90;99.90
13998;DHT22;7074;51.508;7.018;2023-02-26T04:32:34;1.90;99.90
13998;DHT22;7074;51.508;7.018;2023-02-26T04:35:01;1.80;99.90
13998;DHT22;7074;51.508;7.018;2023-02-26T04:37:30;1.90;99.90
13998;DHT22;7074;51.508;7.018;2023-02-26T04:39:59;1.80;99.90
13998;DHT22;7074;51.508;7.018;2023-02-26T04:42:26;1.80;99.90
13998;DHT22;7074;51.508;7.018;2023-02-26T04:44:54;1.70;99.90
13998;DHT22;7074;51.508;7.018;2023-02-26T04:47:23;1.90;99.90
13998;DHT22;7074;51.508;7.018;2023-02-26T04:49:50;1.70;99.90
13998;DHT22;7074;51.508;7.018;2023-02-26T04:52:18;1.80;99.90
13998;DHT22;7074;51.508;7.018;2023-02-26T04:54:45;1.70;99.90
13998;DHT22;7074;51.508;7.018;2023-02-26T04:57:16;1.60;99.90
13998;DHT22;7074;51.508;7.018;2023-02-26T04:59:44;1.80;99.90
13998;DHT22;7074;51.508;7.018;2023-02-26T05:02:12;1.80;99.90
13998;DHT22;7074;51.508;7.018;2023-02-26T05:04:48;1.80;99.90
13998;DHT22;7074;51.508;7.018;2023-02-26T05:07:16;1.90;99.90
13998;DHT22;7074;51.508;7.018;2023-02-26T05:09:45;1.90;99.90
13998;DHT22;7074;51.508;7.018;2023-02-26T05:12:12;2.00;99.90
13998;DHT22;7074;51.508;7.018;2023-02-26T05:14:42;1.90;99.90
13998;DHT22;7074;51.508;7.018;2023-02-26T05:17:10;1.90;99.90
13998;DHT22;7074;51.508;7.018;2023-02-26T05:19:37;2.00;99.90
13998;DHT22;7074;51.508;7.018;2023-02-26T05:22:05;1.90;99.90
13998;DHT22;7074;51.508;7.018;2023-02-26T05:24:32;1.90;99.90
13998;DHT22;7074;51.508;7.018;2023-02-26T05:27:00;1.90;99.90
13998;DHT22;7074;51.508;7.018;2023-02-26T05:29:29;1.90;99.90
13998;DHT22;7074;51.508;7.018;2023-02-26T05:32:01;1.90;99.90
13998;DHT22;7074;51.508;7.018;2023-02-26T05:34:28;2.00;99.90
13998;DHT22;7074;51.508;7.018;2023-02-26T05:36:55;2.00;99.90
13998;DHT22;7074;51.508;7.018;2023-02-26T05:39:22;2.00;99.90
13998;DHT22;7074;51.508;7.018;2023-02-26T05:41:50;2.00;99.90
13998;DHT22;7074;51.508;7.018;2023-02-26T05:44:20;1.90;99.90
13998;DHT22;7074;51.508;7.018;2023-02-26T05:46:47;1.80;99.90
13998;DHT22;7074;51.508;7.018;2023-02-26T05:49:16;1.90;99.90
13998;DHT22;7074;51.508;7.018;2023-02-26T05:51:43;1.90;99.90
13998;DHT22;7074;51.508;7.018;2023-02-26T05:54:11;1.70;99.90
13998;DHT22;7074;51.508;7.018;2023-02-26T05:56:38;1.80;99.90
13998;DHT22;7074;51.508;7.018;2023-02-26T05:59:05;1.70;99.90
13998;DHT22;7074;51.508;7.018;2023-02-26T06:01:32;1.60;99.90
13998;DHT22;7074;51.508;7.018;2023-02-26T06:04:01;1.50;99.90
13998;DHT22;7074;51.508;7.018;2023-02-26T06:06:30;1.60;99.90
13998;DHT22;7074;51.508;7.018;2023-02-26T06:08:58;1.50;99.90
13998;DHT22;7074;51.508;7.018;2023-02-26T06:11:27;1.60;99.90
13998;DHT22;7074;51.508;7.018;2023-02-26T06:13:54;1.60;99.90
13998;DHT22;7074;51.508;7.018;2023-02-26T06:16:22;1.40;99.90
13998;DHT22;7074;51.508;7.018;2023-02-26T06:18:49;1.50;99.90
13998;DHT22;7074;51.508;7.018;2023-02-26T06:21:17;1.60;99.90
13998;DHT22;7074;51.508;7.018;2023-02-26T06:23:46;1.50;99.90
13998;DHT22;7074;51.508;7.018;2023-02-26T06:26:13;1.60;99.90
13998;DHT22;7074;51.508;7.018;2023-02-26T06:28:41;1.60;99.90
13998;DHT22;7074;51.508;7.018;2023-02-26T06:31:08;1.50;99.90
13998;DHT22;7074;51.508;7.018;2023-02-26T06:33:35;1.50;99.90
13998;DHT22;7074;51.508;7.018;2023-02-26T06:36:03;1.50;99.90
13998;DHT22;7074;51.508;7.018;2023-02-26T06:38:30;1.40;99.90
13998;DHT22;7074;51.508;7.018;2023-02-26T06:40:59;1.50;99.90
13998;DHT22;7074;51.508;7.018;2023-02-26T06:43:26;1.30;99.90
13998;DHT22;7074;51.508;7.018;2023-02-26T06:45:56;1.30;99.90
13998;DHT22;7074;51.508;7.018;2023-02-26T06:48:24;1.40;99.90
13998;DHT22;7074;51.508;7.018;2023-02-26T06:50:51;1.50;99.90
13998;DHT22;7074;51.508;7.018;2023-02-26T06:53:18;1.40;99.90
13998;DHT22;7074;51.508;7.018;2023-02-26T06:55:48;1.60;99.90
13998;DHT22;7074;51.508;7.018;2023-02-26T06:58:17;1.50;99.90
13998;DHT22;7074;51.508;7.018;2023-02-26T07:00:45;1.60;99.90
13998;DHT22;7074;51.508;7.018;2023-02-26T07:03:14;1.60;99.90
13998;DHT22;7074;51.508;7.018;2023-02-26T07:05:42;1.70;99.90
13998;DHT22;7074;51.508;7.018;2023-02-26T07:08:10;1.80;99.90
13998;DHT22;7074;51.508;7.018;2023-02-26T07:10:38;1.80;99.90
13998;DHT22;7074;51.508;7.018;2023-02-26T07:13:06;1.70;99.90
13998;DHT22;7074;51.508;7.018;2023-02-26T07:15:35;1.80;99.90
13998;DHT22;7074;51.508;7.018;2023-02-26T07:18:02;1.90;99.90
13998;DHT22;7074;51.508;7.018;2023-02-26T07:20:29;1.90;99.90
13998;DHT22;7074;51.508;7.018;2023-02-26T07:22:57;1.90;99.90
13998;DHT22;7074;51.508;7.018;2023-02-26T07:25:25;1.70;99.90
13998;DHT22;7074;51.508;7.018;2023-02-26T07:27:52;1.80;99.90
13998;DHT22;7074;51.508;7.018;2023-02-26T07:30:19;1.90;99.90
13998;DHT22;7074;51.508;7.018;2023-02-26T07:32:48;2.00;99.90
13998;DHT22;7074;51.508;7.018;2023-02-26T07:35:15;2.00;99.90
13998;DHT22;7074;51.508;7.018;2023-02-26T07:37:43;2.00;99.90
13998;DHT22;7074;51.508;7.018;2023-02-26T07:40:11;2.00;99.90
13998;DHT22;7074;51.508;7.018;2023-02-26T07:42:39;2.10;99.90
13998;DHT22;7074;51.508;7.018;2023-02-26T07:45:07;2.10;99.90
13998;DHT22;7074;51.508;7.018;2023-02-26T07:47:34;2.20;99.90
13998;DHT22;7074;51.508;7.018;2023-02-26T07:50:04;2.30;99.90
13998;DHT22;7074;51.508;7.018;2023-02-26T07:52:31;2.20;99.90
13998;DHT22;7074;51.508;7.018;2023-02-26T07:54:59;2.30;99.90
13998;DHT22;7074;51.508;7.018;2023-02-26T07:57:26;2.40;99.90
13998;DHT22;7074;51.508;7.018;2023-02-26T07:59:53;2.50;99.90
13998;DHT22;7074;51.508;7.018;2023-02-26T08:02:20;2.50;99.90
13998;DHT22;7074;51.508;7.018;2023-02-26T08:04:49;2.60;99.90
13998;DHT22;7074;51.508;7.018;2023-02-26T08:07:18;2.80;99.90
13998;DHT22;7074;51.508;7.018;2023-02-26T08:09:45;2.70;99.90
13998;DHT22;7074;51.508;7.018;2023-02-26T08:12:12;2.80;99.90
13998;DHT22;7074;51.508;7.018;2023-02-26T08:14:41;2.80;99.90
13998;DHT22;7074;51.508;7.018;2023-02-26T08:17:08;2.90;99.90
13998;DHT22;7074;51.508;7.018;2023-02-26T08:19:36;2.90;99.90
13998;DHT22;7074;51.508;7.018;2023-02-26T08:22:03;3.00;99.90
13998;DHT22;7074;51.508;7.018;2023-02-26T08:24:32;3.00;99.90
13998;DHT22;7074;51.508;7.018;2023-02-26T08:26:59;3.10;99.90
13998;DHT22;7074;51.508;7.018;2023-02-26T08:29:27;3.00;99.90
13998;DHT22;7074;51.508;7.018;2023-02-26T08:31:55;3.10;99.90
13998;DHT22;7074;51.508;7.018;2023-02-26T08:34:23;3.10;99.90
13998;DHT22;7074;51.508;7.018;2023-02-26T08:36:50;3.20;99.90
13998;DHT22;7074;51.508;7.018;2023-02-26T08:39:18;3.10;99.90
13998;DHT22;7074;51.508;7.018;2023-02-26T08:41:47;3.10;99.90
13998;DHT22;7074;51.508;7.018;2023-02-26T08:44:14;3.30;99.90
13998;DHT22;7074;51.508;7.018;2023-02-26T08:46:41;3.30;99.90
13998;DHT22;7074;51.508;7.018;2023-02-26T08:49:09;3.10;99.90
13998;DHT22;7074;51.508;7.018;2023-02-26T08:51:36;3.30;99.90
13998;DHT22;7074;51.508;7.018;2023-02-26T08:56:34;3.30;99.90
13998;DHT22;7074;51.508;7.018;2023-02-26T08:59:03;3.30;99.90
13998;DHT22;7074;51.508;7.018;2023-02-26T09:01:30;3.50;99.90
13998;DHT22;7074;51.508;7.018;2023-02-26T09:03:57;3.70;99.90
13998;DHT22;7074;51.508;7.018;2023-02-26T09:06:24;3.80;99.90
13998;DHT22;7074;51.508;7.018;2023-02-26T09:08:51;3.80;99.90
13998;DHT22;7074;51.508;7.018;2023-02-26T09:11:19;3.90;99.90
13998;DHT22;7074;51.508;7.018;2023-02-26T09:13:46;4.10;99.90
13998;DHT22;7074;51.508;7.018;2023-02-26T09:16:14;4.00;99.90
13998;DHT22;7074;51.508;7.018;2023-02-26T09:18:43;3.90;99.90
13998;DHT22;7074;51.508;7.018;2023-02-26T09:21:10;4.00;99.90
13998;DHT22;7074;51.508;7.018;2023-02-26T09:23:37;4.40;99.90
13998;DHT22;7074;51.508;7.018;2023-02-26T09:26:04;4.20;99.90
13998;DHT22;7074;51.508;7.018;2023-02-26T09:28:33;4.40;99.90
13998;DHT22;7074;51.508;7.018;2023-02-26T09:31:00;4.50;99.90
13998;DHT22;7074;51.508;7.018;2023-02-26T09:33:29;4.60;99.90
13998;DHT22;7074;51.508;7.018;2023-02-26T09:35:56;4.70;99.90
13998;DHT22;7074;51.508;7.018;2023-02-26T09:38:24;4.70;99.90
13998;DHT22;7074;51.508;7.018;2023-02-26T09:40:53;4.50;99.90
13998;DHT22;7074;51.508;7.018;2023-02-26T09:43:52;4.70;99.90
13998;DHT22;7074;51.508;7.018;2023-02-26T09:46:31;4.60;99.90
13998;DHT22;7074;51.508;7.018;2023-02-26T09:49:11;4.40;99.90
13998;DHT22;7074;51.508;7.018;2023-02-26T09:51:40;4.70;99.90
13998;DHT22;7074;51.508;7.018;2023-02-26T09:54:15;4.90;99.90
13998;DHT22;7074;51.508;7.018;2023-02-26T09:56:44;4.60;99.90
13998;DHT22;7074;51.508;7.018;2023-02-26T09:59:11;4.60;99.90
13998;DHT22;7074;51.508;7.018;2023-02-26T10:01:43;4.80;99.90
13998;DHT22;7074;51.508;7.018;2023-02-26T10:04:21;5.00;99.70
13998;DHT22;7074;51.508;7.018;2023-02-26T10:06:59;4.80;99.70
13998;DHT22;7074;51.508;7.018;2023-02-26T10:09:36;4.90;99.90
13998;DHT22;7074;51.508;7.018;2023-02-26T10:12:09;5.20;99.30
13998;DHT22;7074;51.508;7.018;2023-02-26T10:14:41;5.10;99.10
13998;DHT22;7074;51.508;7.018;2023-02-26T10:17:17;5.00;99.70
13998;DHT22;7074;51.508;7.018;2023-02-26T10:19:50;5.30;99.60
13998;DHT22;7074;51.508;7.018;2023-02-26T10:22:24;5.40;98.00
13998;DHT22;7074;51.508;7.018;2023-02-26T10:24:56;5.20;97.80
13998;DHT22;7074;51.508;7.018;2023-02-26T10:27:35;5.20;98.40
13998;DHT22;7074;51.508;7.018;2023-02-26T10:30:10;5.20;98.90
13998;DHT22;7074;51.508;7.018;2023-02-26T10:32:44;5.30;98.10
13998;DHT22;7074;51.508;7.018;2023-02-26T10:35:16;4.90;96.90
13998;DHT22;7074;51.508;7.018;2023-02-26T10:37:47;4.80;97.30
13998;DHT22;7074;51.508;7.018;2023-02-26T10:40:18;4.90;98.40
13998;DHT22;7074;51.508;7.018;2023-02-26T10:42:51;4.90;98.00
13998;DHT22;7074;51.508;7.018;2023-02-26T10:45:31;5.10;96.70
13998;DHT22;7074;51.508;7.018;2023-02-26T10:48:10;5.20;96.20
13998;DHT22;7074;51.508;7.018;2023-02-26T10:50:47;5.40;96.30
13998;DHT22;7074;51.508;7.018;2023-02-26T10:53:17;5.60;94.80
13998;DHT22;7074;51.508;7.018;2023-02-26T10:55:47;5.50;94.40
13998;DHT22;7074;51.508;7.018;2023-02-26T10:58:18;5.60;94.70
13998;DHT22;7074;51.508;7.018;2023-02-26T11:00:50;5.50;95.40
13998;DHT22;7074;51.508;7.018;2023-02-26T11:03:26;5.80;95.10
13998;DHT22;7074;51.508;7.018;2023-02-26T11:05:57;5.80;93.60
13998;DHT22;7074;51.508;7.018;2023-02-26T11:08:26;5.90;92.50
13998;DHT22;7074;51.508;7.018;2023-02-26T11:10:56;6.00;92.30
13998;DHT22;7074;51.508;7.018;2023-02-26T11:13:25;5.70;91.90
13998;DHT22;7074;51.508;7.018;2023-02-26T11:15:55;5.20;90.80
13998;DHT22;7074;51.508;7.018;2023-02-26T11:18:25;5.30;91.50
13998;DHT22;7074;51.508;7.018;2023-02-26T11:20:57;5.30;90.80
13998;DHT22;7074;51.508;7.018;2023-02-26T11:23:27;5.20;91.30
13998;DHT22;7074;51.508;7.018;2023-02-26T11:26:02;5.50;92.10
13998;DHT22;7074;51.508;7.018;2023-02-26T11:28:32;5.50;91.10
13998;DHT22;7074;51.508;7.018;2023-02-26T11:31:01;5.60;90.60
13998;DHT22;7074;51.508;7.018;2023-02-26T11:33:36;5.70;89.80
13998;DHT22;7074;51.508;7.018;2023-02-26T11:36:10;5.90;89.60
13998;DHT22;7074;51.508;7.018;2023-02-26T11:38:39;5.40;86.70
13998;DHT22;7074;51.508;7.018;2023-02-26T11:41:07;5.50;90.10
13998;DHT22;7074;51.508;7.018;2023-02-26T11:43:36;5.40;87.90
13998;DHT22;7074;51.508;7.018;2023-02-26T11:46:07;5.60;90.70
13998;DHT22;7074;51.508;7.018;2023-02-26T11:48:39;5.90;86.80
13998;DHT22;7074;51.508;7.018;2023-02-26T11:51:12;6.20;84.30
13998;DHT22;7074;51.508;7.018;2023-02-26T11:53:43;6.30;77.80
13998;DHT22;7074;51.508;7.018;2023-02-26T11:56:24;6.20;76.40
13998;DHT22;7074;51.508;7.018;2023-02-26T11:58:52;6.40;77.50
13998;DHT22;7074;51.508;7.018;2023-02-26T12:01:26;6.50;77.30
13998;DHT22;7074;51.508;7.018;2023-02-26T12:03:57;6.50;77.10
13998;DHT22;7074;51.508;7.018;2023-02-26T12:06:27;6.30;73.10
13998;DHT22;7074;51.508;7.018;2023-02-26T12:08:54;5.90;80.60
13998;DHT22;7074;51.508;7.018;2023-02-26T12:14:22;6.40;85.20
13998;DHT22;7074;51.508;7.018;2023-02-26T12:17:02;6.10;79.50
13998;DHT22;7074;51.508;7.018;2023-02-26T12:19:39;6.00;78.00
13998;DHT22;7074;51.508;7.018;2023-02-26T12:25:34;6.20;75.80
13998;DHT22;7074;51.508;7.018;2023-02-26T12:33:59;5.60;80.20
13998;DHT22;7074;51.508;7.018;2023-02-26T12:36:42;5.90;80.40
13998;DHT22;7074;51.508;7.018;2023-02-26T12:39:29;5.90;80.80
13998;DHT22;7074;51.508;7.018;2023-02-26T12:42:09;6.00;81.10
13998;DHT22;7074;51.508;7.018;2023-02-26T12:47:45;6.00;78.00
13998;DHT22;7074;51.508;7.018;2023-02-26T12:50:36;6.20;77.50
13998;DHT22;7074;51.508;7.018;2023-02-26T12:53:36;6.40;79.50
13998;DHT22;7074;51.508;7.018;2023-02-26T12:56:23;6.30;79.20
13998;DHT22;7074;51.508;7.018;2023-02-26T12:58:58;6.40;79.90
13998;DHT22;7074;51.508;7.018;2023-02-26T13:01:47;6.50;80.00
13998;DHT22;7074;51.508;7.018;2023-02-26T13:05:01;6.40;78.30
13998;DHT22;7074;51.508;7.018;2023-02-26T13:07:55;6.50;79.40
13998;DHT22;7074;51.508;7.018;2023-02-26T13:10:36;6.60;81.50
13998;DHT22;7074;51.508;7.018;2023-02-26T13:13:19;6.90;80.00
13998;DHT22;7074;51.508;7.018;2023-02-26T13:16:03;6.80;77.30
13998;DHT22;7074;51.508;7.018;2023-02-26T13:18:38;6.50;76.30
13998;DHT22;7074;51.508;7.018;2023-02-26T13:21:10;6.40;77.60
13998;DHT22;7074;51.508;7.018;2023-02-26T13:23:45;6.40;75.00
13998;DHT22;7074;51.508;7.018;2023-02-26T13:26:15;6.60;74.60
13998;DHT22;7074;51.508;7.018;2023-02-26T13:28:48;6.50;72.60
13998;DHT22;7074;51.508;7.018;2023-02-26T13:31:20;6.30;72.30
13998;DHT22;7074;51.508;7.018;2023-02-26T13:33:49;6.20;72.30
13998;DHT22;7074;51.508;7.018;2023-02-26T13:36:19;6.40;73.50
13998;DHT22;7074;51.508;7.018;2023-02-26T13:39:02;6.30;74.10
13998;DHT22;7074;51.508;7.018;2023-02-26T13:41:41;6.60;74.60
13998;DHT22;7074;51.508;7.018;2023-02-26T13:44:29;6.70;69.30
13998;DHT22;7074;51.508;7.018;2023-02-26T13:47:30;6.40;68.20
13998;DHT22;7074;51.508;7.018;2023-02-26T13:50:15;6.40;69.30
13998;DHT22;7074;51.508;7.018;2023-02-26T13:52:50;6.80;70.40
13998;DHT22;7074;51.508;7.018;2023-02-26T13:55:34;7.00;69.80
13998;DHT22;7074;51.508;7.018;2023-02-26T13:58:16;6.90;67.70
13998;DHT22;7074;51.508;7.018;2023-02-26T14:00:56;7.10;69.80
13998;DHT22;7074;51.508;7.018;2023-02-26T14:03:33;7.20;70.30
13998;DHT22;7074;51.508;7.018;2023-02-26T14:06:34;6.80;68.90
13998;DHT22;7074;51.508;7.018;2023-02-26T14:09:04;7.20;70.80
13998;DHT22;7074;51.508;7.018;2023-02-26T14:11:44;7.20;68.60
13998;DHT22;7074;51.508;7.018;2023-02-26T14:14:17;7.20;67.30
13998;DHT22;7074;51.508;7.018;2023-02-26T14:16:52;7.20;66.10
13998;DHT22;7074;51.508;7.018;2023-02-26T14:19:27;7.10;64.90
13998;DHT22;7074;51.508;7.018;2023-02-26T14:21:56;7.00;64.10
13998;DHT22;7074;51.508;7.018;2023-02-26T14:24:31;7.10;63.80
13998;DHT22;7074;51.508;7.018;2023-02-26T14:27:32;7.10;64.40
13998;DHT22;7074;51.508;7.018;2023-02-26T14:30:13;6.90;65.40
13998;DHT22;7074;51.508;7.018;2023-02-26T14:32:48;6.70;66.00
13998;DHT22;7074;51.508;7.018;2023-02-26T14:35:18;7.00;68.00
13998;DHT22;7074;51.508;7.018;2023-02-26T14:37:52;6.90;66.30
13998;DHT22;7074;51.508;7.018;2023-02-26T14:40:23;7.00;68.10
13998;DHT22;7074;51.508;7.018;2023-02-26T14:42:53;6.80;68.00
13998;DHT22;7074;51.508;7.018;2023-02-26T14:45:28;6.80;67.60
13998;DHT22;7074;51.508;7.018;2023-02-26T14:47:59;6.90;68.20
13998;DHT22;7074;51.508;7.018;2023-02-26T14:50:34;6.80;69.90
13998;DHT22;7074;51.508;7.018;2023-02-26T14:53:34;7.00;69.40
13998;DHT22;7074;51.508;7.018;2023-02-26T14:56:09;7.10;69.20
13998;DHT22;7074;51.508;7.018;2023-02-26T14:58:50;6.90;67.40
13998;DHT22;7074;51.508;7.018;2023-02-26T15:01:35;6.80;69.30
13998;DHT22;7074;51.508;7.018;2023-02-26T15:04:22;6.60;69.40
13998;DHT22;7074;51.508;7.018;2023-02-26T15:07:14;6.50;71.10
13998;DHT22;7074;51.508;7.018;2023-02-26T15:10:15;6.70;72.70
13998;DHT22;7074;51.508;7.018;2023-02-26T15:12:59;6.80;71.80
13998;DHT22;7074;51.508;7.018;2023-02-26T15:15:44;6.90;70.90
13998;DHT22;7074;51.508;7.018;2023-02-26T15:18:34;6.80;71.00
13998;DHT22;7074;51.508;7.018;2023-02-26T15:21:13;6.60;72.50
13998;DHT22;7074;51.508;7.018;2023-02-26T15:23:45;7.00;73.30
13998;DHT22;7074;51.508;7.018;2023-02-26T15:26:18;7.10;73.40
13998;DHT22;7074;51.508;7.018;2023-02-26T15:28:46;7.10;73.70
13998;DHT22;7074;51.508;7.018;2023-02-26T15:31:13;7.20;72.90
13998;DHT22;7074;51.508;7.018;2023-02-26T15:33:42;7.10;73.60
13998;DHT22;7074;51.508;7.018;2023-02-26T15:36:15;7.30;75.00
13998;DHT22;7074;51.508;7.018;2023-02-26T15:38:46;7.30;76.10
13998;DHT22;7074;51.508;7.018;2023-02-26T15:41:14;7.30;73.00
13998;DHT22;7074;51.508;7.018;2023-02-26T15:43:46;7.00;71.80
13998;DHT22;7074;51.508;7.018;2023-02-26T15:46:15;6.80;72.60
13998;DHT22;7074;51.508;7.018;2023-02-26T15:48:43;6.80;73.40
13998;DHT22;7074;51.508;7.018;2023-02-26T15:51:13;6.90;72.70
13998;DHT22;7074;51.508;7.018;2023-02-26T15:53:45;6.90;71.20
13998;DHT22;7074;51.508;7.018;2023-02-26T15:56:15;6.80;70.50
13998;DHT22;7074;51.508;7.018;2023-02-26T15:58:49;6.60;71.20
13998;DHT22;7074;51.508;7.018;2023-02-26T16:01:18;6.60;72.30
13998;DHT22;7074;51.508;7.018;2023-02-26T16:03:46;6.50;72.70
13998;DHT22;7074;51.508;7.018;2023-02-26T16:06:19;6.50;73.40
13998;DHT22;7074;51.508;7.018;2023-02-26T16:08:46;6.40;74.50
13998;DHT22;7074;51.508;7.018;2023-02-26T16:11:14;6.30;74.80
13998;DHT22;7074;51.508;7.018;2023-02-26T16:13:43;6.40;75.50
13998;DHT22;7074;51.508;7.018;2023-02-26T16:16:14;6.50;76.50
13998;DHT22;7074;51.508;7.018;2023-02-26T16:18:44;6.40;75.90
13998;DHT22;7074;51.508;7.018;2023-02-26T16:21:20;6.30;76.80
13998;DHT22;7074;51.508;7.018;2023-02-26T16:23:50;6.30;77.80
13998;DHT22;7074;51.508;7.018;2023-02-26T16:26:21;6.40;78.20
13998;DHT22;7074;51.508;7.018;2023-02-26T16:28:53;6.30;76.80
13998;DHT22;7074;51.508;7.018;2023-02-26T16:31:24;6.20;75.40
13998;DHT22;7074;51.508;7.018;2023-02-26T16:33:55;6.30;75.80
13998;DHT22;7074;51.508;7.018;2023-02-26T16:36:27;6.30;76.00
13998;DHT22;7074;51.508;7.018;2023-02-26T16:39:04;6.30;76.80
13998;DHT22;7074;51.508;7.018;2023-02-26T16:41:38;6.20;75.90
13998;DHT22;7074;51.508;7.018;2023-02-26T16:44:45;6.00;73.80
13998;DHT22;7074;51.508;7.018;2023-02-26T16:47:14;6.00;73.80
13998;DHT22;7074;51.508;7.018;2023-02-26T16:49:43;5.80;73.50
13998;DHT22;7074;51.508;7.018;2023-02-26T16:52:16;5.90;75.00
13998;DHT22;7074;51.508;7.018;2023-02-26T16:54:51;5.80;74.80
13998;DHT22;7074;51.508;7.018;2023-02-26T16:57:23;5.90;76.20
13998;DHT22;7074;51.508;7.018;2023-02-26T16:59:54;5.90;76.40